sensor_id;sensor_type;location;lat;lon;timestamp;P1;durP1;ratioP1;P2;durP2;ratioP2
22415;SDS011;12204;50.600;4.608;2023-12-04T00:04:48;71.60;;;33.53;;
22415;SDS011;12204;50.600;4.608;2023-12-04T00:09:53;72.13;;;33.80;;
22415;SDS011;12204;50.600;4.608;2023-12-04T00:14:57;68.63;;;31.90;;
22415;SDS011;12204;50.600;4.608;2023-12-04T00:20:01;63.72;;;30.85;;
22415;SDS011;12204;50.600;4.608;2023-12-04T00:25:05;59.25;;;29.50;;
22415;SDS011;12204;50.600;4.608;2023-12-04T00:30:11;59.75;;;30.17;;
22415;SDS011;12204;50.600;4.608;2023-12-04T00:35:15;57.50;;;27.50;;
22415;SDS011;12204;50.600;4.608;2023-12-04T00:40:19;50.88;;;25.63;;
22415;SDS011;12204;50.600;4.608;2023-12-04T00:45:24;50.92;;;25.92;;
22415;SDS011;12204;50.600;4.608;2023-12-04T00:50:27;52.55;;;25.42;;
22415;SDS011;12204;50.600;4.608;2023-12-04T00:55:31;50.65;;;25.50;;
22415;SDS011;12204;50.600;4.608;2023-12-04T01:00:36;45.05;;;23.85;;
22415;SDS011;12204;50.600;4.608;2023-12-04T01:05:39;44.28;;;22.88;;
22415;SDS011;12204;50.600;4.608;2023-12-04T01:10:43;43.28;;;22.77;;
22415;SDS011;12204;50.600;4.608;2023-12-04T01:15:48;48.28;;;23.13;;
22415;SDS011;12204;50.600;4.608;2023-12-04T01:20:52;43.53;;;21.77;;
22415;SDS011;12204;50.600;4.608;2023-12-04T01:25:55;41.25;;;21.33;;
22415;SDS011;12204;50.600;4.608;2023-12-04T01:31:00;41.33;;;20.40;;
22415;SDS011;12204;50.600;4.608;2023-12-04T01:36:04;38.60;;;19.48;;
22415;SDS011;12204;50.600;4.608;2023-12-04T01:41:09;42.08;;;19.85;;
22415;SDS011;12204;50.600;4.608;2023-12-04T01:46:14;37.47;;;19.20;;
22415;SDS011;12204;50.600;4.608;2023-12-04T01:51:19;38.63;;;19.47;;
22415;SDS011;12204;50.600;4.608;2023-12-04T01:56:23;41.65;;;18.58;;
22415;SDS011;12204;50.600;4.608;2023-12-04T02:01:28;34.20;;;17.85;;
22415;SDS011;12204;50.600;4.608;2023-12-04T02:06:33;34.80;;;17.95;;
22415;SDS011;12204;50.600;4.608;2023-12-04T02:11:37;33.75;;;17.33;;
22415;SDS011;12204;50.600;4.608;2023-12-04T02:16:43;33.42;;;17.27;;
22415;SDS011;12204;50.600;4.608;2023-12-04T02:21:47;32.15;;;17.20;;
22415;SDS011;12204;50.600;4.608;2023-12-04T02:26:53;33.13;;;16.92;;
22415;SDS011;12204;50.600;4.608;2023-12-04T02:32:02;29.23;;;15.68;;
22415;SDS011;12204;50.600;4.608;2023-12-04T02:37:08;31.08;;;16.40;;
22415;SDS011;12204;50.600;4.608;2023-12-04T02:42:14;28.02;;;14.55;;
22415;SDS011;12204;50.600;4.608;2023-12-04T02:47:18;27.00;;;14.75;;
22415;SDS011;12204;50.600;4.608;2023-12-04T02:52:22;26.67;;;13.93;;
22415;SDS011;12204;50.600;4.608;2023-12-04T02:57:27;23.25;;;12.20;;
22415;SDS011;12204;50.600;4.608;2023-12-04T03:02:30;22.30;;;11.57;;
22415;SDS011;12204;50.600;4.608;2023-12-04T03:07:34;21.52;;;11.18;;
22415;SDS011;12204;50.600;4.608;2023-12-04T03:12:38;21.45;;;11.00;;
22415;SDS011;12204;50.600;4.608;2023-12-04T03:17:42;19.45;;;10.50;;
22415;SDS011;12204;50.600;4.608;2023-12-04T03:22:45;18.00;;;9.82;;
22415;SDS011;12204;50.600;4.608;2023-12-04T03:27:50;18.80;;;9.85;;
22415;SDS011;12204;50.600;4.608;2023-12-04T03:32:54;17.92;;;9.10;;
22415;SDS011;12204;50.600;4.608;2023-12-04T03:37:57;18.27;;;9.43;;
22415;SDS011;12204;50.600;4.608;2023-12-04T03:43:02;17.10;;;8.68;;
22415;SDS011;12204;50.600;4.608;2023-12-04T03:48:06;17.67;;;8.55;;
22415;SDS011;12204;50.600;4.608;2023-12-04T03:53:09;16.63;;;8.93;;
22415;SDS011;12204;50.600;4.608;2023-12-04T03:58:14;15.00;;;8.25;;
22415;SDS011;12204;50.600;4.608;2023-12-04T04:03:18;15.52;;;8.35;;
22415;SDS011;12204;50.600;4.608;2023-12-04T04:08:21;15.98;;;8.20;;
22415;SDS011;12204;50.600;4.608;2023-12-04T04:13:27;15.13;;;7.93;;
22415;SDS011;12204;50.600;4.608;2023-12-04T04:18:30;14.55;;;7.72;;
22415;SDS011;12204;50.600;4.608;2023-12-04T04:23:34;16.23;;;8.18;;
22415;SDS011;12204;50.600;4.608;2023-12-04T04:28:39;16.38;;;7.65;;
22415;SDS011;12204;50.600;4.608;2023-12-04T04:33:43;13.82;;;7.32;;
22415;SDS011;12204;50.600;4.608;2023-12-04T04:38:47;15.20;;;7.75;;
22415;SDS011;12204;50.600;4.608;2023-12-04T04:43:51;13.82;;;7.65;;
22415;SDS011;12204;50.600;4.608;2023-12-04T04:48:55;13.15;;;7.07;;
22415;SDS011;12204;50.600;4.608;2023-12-04T04:53:59;11.15;;;6.07;;
22415;SDS011;12204;50.600;4.608;2023-12-04T04:59:04;11.77;;;5.30;;
22415;SDS011;12204;50.600;4.608;2023-12-04T05:04:07;10.93;;;5.55;;
22415;SDS011;12204;50.600;4.608;2023-12-04T05:09:11;10.25;;;5.05;;
22415;SDS011;12204;50.600;4.608;2023-12-04T05:14:16;11.95;;;5.25;;
22415;SDS011;12204;50.600;4.608;2023-12-04T05:19:19;10.05;;;5.15;;
22415;SDS011;12204;50.600;4.608;2023-12-04T05:24:23;8.95;;;4.82;;
22415;SDS011;12204;50.600;4.608;2023-12-04T05:29:27;10.68;;;4.95;;
22415;SDS011;12204;50.600;4.608;2023-12-04T05:34:34;9.13;;;4.70;;
22415;SDS011;12204;50.600;4.608;2023-12-04T05:39:37;9.13;;;4.38;;
22415;SDS011;12204;50.600;4.608;2023-12-04T05:44:42;10.38;;;4.70;;
22415;SDS011;12204;50.600;4.608;2023-12-04T05:49:46;9.40;;;4.80;;
22415;SDS011;12204;50.600;4.608;2023-12-04T05:54:49;10.98;;;4.40;;
22415;SDS011;12204;50.600;4.608;2023-12-04T05:59:56;10.60;;;4.72;;
22415;SDS011;12204;50.600;4.608;2023-12-04T06:05:01;8.73;;;4.50;;
22415;SDS011;12204;50.600;4.608;2023-12-04T06:10:05;9.75;;;4.18;;
22415;SDS011;12204;50.600;4.608;2023-12-04T06:15:13;8.10;;;4.05;;
22415;SDS011;12204;50.600;4.608;2023-12-04T06:20:16;8.40;;;3.90;;
22415;SDS011;12204;50.600;4.608;2023-12-04T06:25:20;7.60;;;4.00;;
22415;SDS011;12204;50.600;4.608;2023-12-04T06:30:29;7.88;;;3.92;;
22415;SDS011;12204;50.600;4.608;2023-12-04T06:35:34;8.88;;;3.53;;
22415;SDS011;12204;50.600;4.608;2023-12-04T06:40:38;7.85;;;3.88;;
22415;SDS011;12204;50.600;4.608;2023-12-04T06:45:44;7.40;;;3.63;;
22415;SDS011;12204;50.600;4.608;2023-12-04T06:50:48;8.05;;;3.70;;
22415;SDS011;12204;50.600;4.608;2023-12-04T06:55:52;8.10;;;3.78;;
22415;SDS011;12204;50.600;4.608;2023-12-04T07:00:56;7.22;;;3.40;;
22415;SDS011;12204;50.600;4.608;2023-12-04T07:06:00;6.68;;;3.08;;
22415;SDS011;12204;50.600;4.608;2023-12-04T07:11:05;7.03;;;3.30;;
22415;SDS011;12204;50.600;4.608;2023-12-04T07:16:11;7.47;;;3.22;;
22415;SDS011;12204;50.600;4.608;2023-12-04T07:21:15;6.45;;;3.00;;
22415;SDS011;12204;50.600;4.608;2023-12-04T07:26:19;6.53;;;3.15;;
22415;SDS011;12204;50.600;4.608;2023-12-04T07:31:24;7.38;;;3.40;;
22415;SDS011;12204;50.600;4.608;2023-12-04T07:36:28;6.88;;;3.10;;
22415;SDS011;12204;50.600;4.608;2023-12-04T07:41:31;11.38;;;2.95;;
22415;SDS011;12204;50.600;4.608;2023-12-04T07:46:36;8.45;;;3.03;;
22415;SDS011;12204;50.600;4.608;2023-12-04T07:51:39;7.28;;;3.00;;
22415;SDS011;12204;50.600;4.608;2023-12-04T07:56:43;7.55;;;2.38;;
22415;SDS011;12204;50.600;4.608;2023-12-04T08:01:48;6.25;;;2.97;;
22415;SDS011;12204;50.600;4.608;2023-12-04T08:06:54;8.85;;;2.60;;
22415;SDS011;12204;50.600;4.608;2023-12-04T08:11:58;7.25;;;2.63;;
22415;SDS011;12204;50.600;4.608;2023-12-04T08:17:03;8.18;;;2.40;;
22415;SDS011;12204;50.600;4.608;2023-12-04T08:22:06;6.25;;;2.25;;
22415;SDS011;12204;50.600;4.608;2023-12-04T08:27:10;6.93;;;2.17;;
22415;SDS011;12204;50.600;4.608;2023-12-04T08:32:15;6.25;;;2.35;;
22415;SDS011;12204;50.600;4.608;2023-12-04T08:37:18;5.57;;;2.38;;
22415;SDS011;12204;50.600;4.608;2023-12-04T08:42:22;5.32;;;2.15;;
22415;SDS011;12204;50.600;4.608;2023-12-04T08:47:27;6.78;;;2.30;;
22415;SDS011;12204;50.600;4.608;2023-12-04T08:52:30;5.30;;;2.22;;
22415;SDS011;12204;50.600;4.608;2023-12-04T08:57:34;8.55;;;2.35;;
22415;SDS011;12204;50.600;4.608;2023-12-04T09:02:39;13.57;;;2.38;;
22415;SDS011;12204;50.600;4.608;2023-12-04T09:07:50;9.13;;;2.10;;
22415;SDS011;12204;50.600;4.608;2023-12-04T09:12:56;6.20;;;2.10;;
22415;SDS011;12204;50.600;4.608;2023-12-04T09:18:01;12.50;;;2.20;;
22415;SDS011;12204;50.600;4.608;2023-12-04T09:23:05;5.53;;;2.10;;
22415;SDS011;12204;50.600;4.608;2023-12-04T09:28:10;8.07;;;2.20;;
22415;SDS011;12204;50.600;4.608;2023-12-04T09:33:14;5.40;;;2.10;;
22415;SDS011;12204;50.600;4.608;2023-12-04T09:38:18;7.05;;;2.00;;
22415;SDS011;12204;50.600;4.608;2023-12-04T09:43:22;6.40;;;1.90;;
22415;SDS011;12204;50.600;4.608;2023-12-04T09:48:29;5.30;;;1.58;;
22415;SDS011;12204;50.600;4.608;2023-12-04T09:53:35;11.73;;;1.87;;
22415;SDS011;12204;50.600;4.608;2023-12-04T09:58:39;12.68;;;2.03;;
22415;SDS011;12204;50.600;4.608;2023-12-04T10:03:45;12.35;;;1.70;;
22415;SDS011;12204;50.600;4.608;2023-12-04T10:08:49;6.70;;;1.88;;
22415;SDS011;12204;50.600;4.608;2023-12-04T10:13:53;9.05;;;2.17;;
22415;SDS011;12204;50.600;4.608;2023-12-04T10:19:21;7.40;;;1.55;;
22415;SDS011;12204;50.600;4.608;2023-12-04T10:24:28;8.50;;;1.67;;
22415;SDS011;12204;50.600;4.608;2023-12-04T10:29:41;4.95;;;1.60;;
22415;SDS011;12204;50.600;4.608;2023-12-04T10:34:50;6.65;;;1.70;;
22415;SDS011;12204;50.600;4.608;2023-12-04T10:39:53;5.80;;;1.40;;
22415;SDS011;12204;50.600;4.608;2023-12-04T10:44:57;5.97;;;1.60;;
22415;SDS011;12204;50.600;4.608;2023-12-04T10:50:03;4.57;;;1.50;;
22415;SDS011;12204;50.600;4.608;2023-12-04T10:55:09;4.23;;;1.50;;
22415;SDS011;12204;50.600;4.608;2023-12-04T11:00:15;4.43;;;1.52;;
22415;SDS011;12204;50.600;4.608;2023-12-04T11:05:22;7.68;;;1.98;;
22415;SDS011;12204;50.600;4.608;2023-12-04T11:10:27;6.67;;;1.60;;
22415;SDS011;12204;50.600;4.608;2023-12-04T11:15:35;3.45;;;1.48;;
22415;SDS011;12204;50.600;4.608;2023-12-04T11:20:46;4.60;;;1.63;;
22415;SDS011;12204;50.600;4.608;2023-12-04T11:25:57;5.70;;;1.80;;
22415;SDS011;12204;50.600;4.608;2023-12-04T11:31:01;31.60;;;4.55;;
22415;SDS011;12204;50.600;4.608;2023-12-04T11:36:10;40.35;;;4.50;;
22415;SDS011;12204;50.600;4.608;2023-12-04T11:41:16;38.50;;;5.00;;
22415;SDS011;12204;50.600;4.608;2023-12-04T11:46:28;33.30;;;4.68;;
22415;SDS011;12204;50.600;4.608;2023-12-04T11:51:46;32.35;;;4.03;;
22415;SDS011;12204;50.600;4.608;2023-12-04T11:56:59;29.75;;;3.65;;
22415;SDS011;12204;50.600;4.608;2023-12-04T12:02:23;24.52;;;3.38;;
22415;SDS011;12204;50.600;4.608;2023-12-04T12:07:29;34.40;;;4.53;;
22415;SDS011;12204;50.600;4.608;2023-12-04T12:12:32;37.78;;;5.25;;
22415;SDS011;12204;50.600;4.608;2023-12-04T12:17:37;44.55;;;5.47;;
22415;SDS011;12204;50.600;4.608;2023-12-04T12:22:46;30.37;;;5.27;;
22415;SDS011;12204;50.600;4.608;2023-12-04T12:27:51;29.65;;;5.75;;
22415;SDS011;12204;50.600;4.608;2023-12-04T12:32:55;33.00;;;5.75;;
22415;SDS011;12204;50.600;4.608;2023-12-04T12:38:00;33.67;;;5.70;;
22415;SDS011;12204;50.600;4.608;2023-12-04T12:43:04;29.83;;;5.60;;
22415;SDS011;12204;50.600;4.608;2023-12-04T12:48:12;31.77;;;5.18;;
22415;SDS011;12204;50.600;4.608;2023-12-04T12:53:19;30.17;;;5.38;;
22415;SDS011;12204;50.600;4.608;2023-12-04T12:58:23;20.50;;;4.70;;
22415;SDS011;12204;50.600;4.608;2023-12-04T13:03:27;26.45;;;4.70;;
22415;SDS011;12204;50.600;4.608;2023-12-04T13:08:37;31.17;;;5.28;;
22415;SDS011;12204;50.600;4.608;2023-12-04T13:13:41;23.10;;;4.57;;
22415;SDS011;12204;50.600;4.608;2023-12-04T13:18:44;24.88;;;4.53;;
22415;SDS011;12204;50.600;4.608;2023-12-04T13:23:49;21.90;;;4.50;;
22415;SDS011;12204;50.600;4.608;2023-12-04T13:28:52;21.38;;;4.40;;
22415;SDS011;12204;50.600;4.608;2023-12-04T13:33:56;17.95;;;4.20;;
22415;SDS011;12204;50.600;4.608;2023-12-04T13:39:01;17.63;;;4.10;;
22415;SDS011;12204;50.600;4.608;2023-12-04T13:44:05;20.35;;;4.10;;
22415;SDS011;12204;50.600;4.608;2023-12-04T13:49:09;17.80;;;4.00;;
22415;SDS011;12204;50.600;4.608;2023-12-04T13:54:14;19.75;;;4.50;;
22415;SDS011;12204;50.600;4.608;2023-12-04T13:59:22;17.70;;;3.80;;
22415;SDS011;12204;50.600;4.608;2023-12-04T14:04:26;17.80;;;4.30;;
22415;SDS011;12204;50.600;4.608;2023-12-04T14:09:31;18.75;;;4.10;;
22415;SDS011;12204;50.600;4.608;2023-12-04T14:14:36;16.05;;;3.72;;
22415;SDS011;12204;50.600;4.608;2023-12-04T14:19:40;15.73;;;3.85;;
22415;SDS011;12204;50.600;4.608;2023-12-04T14:24:45;13.63;;;3.50;;
22415;SDS011;12204;50.600;4.608;2023-12-04T14:29:48;16.45;;;3.72;;
22415;SDS011;12204;50.600;4.608;2023-12-04T14:34:51;11.80;;;3.70;;
22415;SDS011;12204;50.600;4.608;2023-12-04T14:39:57;14.68;;;3.35;;
22415;SDS011;12204;50.600;4.608;2023-12-04T14:45:00;14.55;;;3.20;;
22415;SDS011;12204;50.600;4.608;2023-12-04T14:50:04;12.77;;;3.10;;
22415;SDS011;12204;50.600;4.608;2023-12-04T14:55:10;12.50;;;3.28;;
22415;SDS011;12204;50.600;4.608;2023-12-04T15:00:28;13.27;;;3.20;;
22415;SDS011;12204;50.600;4.608;2023-12-04T15:06:18;11.98;;;3.30;;
22415;SDS011;12204;50.600;4.608;2023-12-04T15:11:44;10.38;;;3.03;;
22415;SDS011;12204;50.600;4.608;2023-12-04T15:17:13;10.38;;;2.90;;
22415;SDS011;12204;50.600;4.608;2023-12-04T15:22:30;11.70;;;2.90;;
22415;SDS011;12204;50.600;4.608;2023-12-04T15:27:35;9.90;;;3.03;;
22415;SDS011;12204;50.600;4.608;2023-12-04T15:32:38;10.98;;;3.05;;
22415;SDS011;12204;50.600;4.608;2023-12-04T15:37:42;10.60;;;2.75;;
22415;SDS011;12204;50.600;4.608;2023-12-04T15:42:47;12.27;;;2.85;;
22415;SDS011;12204;50.600;4.608;2023-12-04T15:47:51;11.02;;;2.58;;
22415;SDS011;12204;50.600;4.608;2023-12-04T15:52:55;11.38;;;2.60;;
22415;SDS011;12204;50.600;4.608;2023-12-04T15:58:02;10.05;;;2.72;;
22415;SDS011;12204;50.600;4.608;2023-12-04T16:03:06;8.75;;;2.58;;
22415;SDS011;12204;50.600;4.608;2023-12-04T16:08:09;9.85;;;2.63;;
22415;SDS011;12204;50.600;4.608;2023-12-04T16:13:14;9.13;;;2.42;;
22415;SDS011;12204;50.600;4.608;2023-12-04T16:18:18;6.95;;;2.13;;
22415;SDS011;12204;50.600;4.608;2023-12-04T16:23:22;8.68;;;2.10;;
22415;SDS011;12204;50.600;4.608;2023-12-04T16:28:26;7.80;;;2.20;;
22415;SDS011;12204;50.600;4.608;2023-12-04T16:33:30;8.32;;;2.00;;
22415;SDS011;12204;50.600;4.608;2023-12-04T16:38:34;9.82;;;2.50;;
22415;SDS011;12204;50.600;4.608;2023-12-04T16:43:39;9.13;;;2.03;;
22415;SDS011;12204;50.600;4.608;2023-12-04T16:48:43;7.30;;;2.05;;
22415;SDS011;12204;50.600;4.608;2023-12-04T16:53:47;7.97;;;2.30;;
22415;SDS011;12204;50.600;4.608;2023-12-04T16:58:55;6.68;;;1.98;;
22415;SDS011;12204;50.600;4.608;2023-12-04T17:03:59;9.88;;;2.30;;
22415;SDS011;12204;50.600;4.608;2023-12-04T17:09:02;7.10;;;1.95;;
22415;SDS011;12204;50.600;4.608;2023-12-04T17:14:09;6.97;;;1.90;;
22415;SDS011;12204;50.600;4.608;2023-12-04T17:19:13;7.50;;;1.80;;
22415;SDS011;12204;50.600;4.608;2023-12-04T17:24:16;8.65;;;2.28;;
22415;SDS011;12204;50.600;4.608;2023-12-04T17:29:22;8.18;;;1.80;;
22415;SDS011;12204;50.600;4.608;2023-12-04T17:34:27;11.20;;;1.80;;
22415;SDS011;12204;50.600;4.608;2023-12-04T17:39:32;6.78;;;1.88;;
22415;SDS011;12204;50.600;4.608;2023-12-04T17:44:38;8.10;;;1.90;;
22415;SDS011;12204;50.600;4.608;2023-12-04T17:49:44;7.68;;;1.88;;
22415;SDS011;12204;50.600;4.608;2023-12-04T17:54:47;7.85;;;2.05;;
22415;SDS011;12204;50.600;4.608;2023-12-04T17:59:53;8.13;;;2.22;;
22415;SDS011;12204;50.600;4.608;2023-12-04T18:04:56;6.93;;;2.08;;
22415;SDS011;12204;50.600;4.608;2023-12-04T18:10:00;5.00;;;1.90;;
22415;SDS011;12204;50.600;4.608;2023-12-04T18:15:07;5.53;;;1.90;;
22415;SDS011;12204;50.600;4.608;2023-12-04T18:20:13;7.90;;;2.10;;
22415;SDS011;12204;50.600;4.608;2023-12-04T18:25:18;6.78;;;2.60;;
22415;SDS011;12204;50.600;4.608;2023-12-04T18:30:25;7.53;;;2.85;;
22415;SDS011;12204;50.600;4.608;2023-12-04T18:35:30;9.70;;;3.85;;
22415;SDS011;12204;50.600;4.608;2023-12-04T18:40:34;7.65;;;3.90;;
22415;SDS011;12204;50.600;4.608;2023-12-04T18:45:40;10.35;;;4.70;;
22415;SDS011;12204;50.600;4.608;2023-12-04T18:50:45;9.40;;;4.00;;
22415;SDS011;12204;50.600;4.608;2023-12-04T18:55:51;9.70;;;3.97;;
22415;SDS011;12204;50.600;4.608;2023-12-04T19:00:57;8.05;;;3.50;;
22415;SDS011;12204;50.600;4.608;2023-12-04T19:11:48;7.20;;;3.50;;
22415;SDS011;12204;50.600;4.608;2023-12-04T19:16:54;7.68;;;3.30;;
22415;SDS011;12204;50.600;4.608;2023-12-04T19:21:57;7.82;;;3.70;;
22415;SDS011;12204;50.600;4.608;2023-12-04T19:27:01;8.63;;;3.38;;
22415;SDS011;12204;50.600;4.608;2023-12-04T19:32:06;6.90;;;3.70;;
22415;SDS011;12204;50.600;4.608;2023-12-04T19:37:09;7.78;;;3.70;;
22415;SDS011;12204;50.600;4.608;2023-12-04T19:42:13;9.68;;;3.88;;
22415;SDS011;12204;50.600;4.608;2023-12-04T19:47:18;9.65;;;4.00;;
22415;SDS011;12204;50.600;4.608;2023-12-04T19:52:21;6.45;;;3.53;;
22415;SDS011;12204;50.600;4.608;2023-12-04T19:57:25;7.95;;;3.70;;
22415;SDS011;12204;50.600;4.608;2023-12-04T20:02:29;8.05;;;3.65;;
22415;SDS011;12204;50.600;4.608;2023-12-04T20:07:35;6.63;;;3.97;;
22415;SDS011;12204;50.600;4.608;2023-12-04T20:12:38;7.10;;;3.60;;
22415;SDS011;12204;50.600;4.608;2023-12-04T20:17:43;8.60;;;5.88;;
22415;SDS011;12204;50.600;4.608;2023-12-04T20:22:47;9.65;;;5.78;;
22415;SDS011;12204;50.600;4.608;2023-12-04T20:27:50;11.70;;;6.03;;
22415;SDS011;12204;50.600;4.608;2023-12-04T20:32:55;17.13;;;6.28;;
22415;SDS011;12204;50.600;4.608;2023-12-04T20:38:00;14.00;;;6.32;;
22415;SDS011;12204;50.600;4.608;2023-12-04T20:43:04;11.13;;;6.57;;
22415;SDS011;12204;50.600;4.608;2023-12-04T20:48:09;11.93;;;6.00;;
22415;SDS011;12204;50.600;4.608;2023-12-04T20:53:13;12.27;;;6.32;;
22415;SDS011;12204;50.600;4.608;2023-12-04T20:58:17;13.82;;;6.70;;
22415;SDS011;12204;50.600;4.608;2023-12-04T21:03:22;12.50;;;6.72;;
22415;SDS011;12204;50.600;4.608;2023-12-04T21:08:26;17.98;;;8.98;;
22415;SDS011;12204;50.600;4.608;2023-12-04T21:13:30;16.17;;;7.53;;
22415;SDS011;12204;50.600;4.608;2023-12-04T21:18:34;19.45;;;9.93;;
22415;SDS011;12204;50.600;4.608;2023-12-04T21:23:38;19.27;;;8.93;;
22415;SDS011;12204;50.600;4.608;2023-12-04T21:28:42;21.38;;;10.60;;
22415;SDS011;12204;50.600;4.608;2023-12-04T21:33:47;21.73;;;10.32;;
22415;SDS011;12204;50.600;4.608;2023-12-04T21:38:51;21.58;;;11.77;;
22415;SDS011;12204;50.600;4.608;2023-12-04T21:43:54;26.05;;;12.80;;
22415;SDS011;12204;50.600;4.608;2023-12-04T21:49:01;27.75;;;13.93;;
22415;SDS011;12204;50.600;4.608;2023-12-04T21:54:05;31.38;;;14.90;;
22415;SDS011;12204;50.600;4.608;2023-12-04T21:59:09;28.95;;;14.52;;
22415;SDS011;12204;50.600;4.608;2023-12-04T22:09:36;23.77;;;12.75;;
22415;SDS011;12204;50.600;4.608;2023-12-04T22:14:39;26.65;;;13.68;;
22415;SDS011;12204;50.600;4.608;2023-12-04T22:19:44;29.08;;;14.73;;
22415;SDS011;12204;50.600;4.608;2023-12-04T22:24:48;34.15;;;15.90;;
22415;SDS011;12204;50.600;4.608;2023-12-04T22:29:51;30.85;;;16.02;;
22415;SDS011;12204;50.600;4.608;2023-12-04T22:34:56;33.10;;;16.63;;
22415;SDS011;12204;50.600;4.608;2023-12-04T22:40:00;33.15;;;16.65;;
22415;SDS011;12204;50.600;4.608;2023-12-04T22:45:04;37.08;;;17.92;;
22415;SDS011;12204;50.600;4.608;2023-12-04T22:50:11;44.35;;;19.88;;
22415;SDS011;12204;50.600;4.608;2023-12-04T22:55:15;43.63;;;20.60;;
22415;SDS011;12204;50.600;4.608;2023-12-04T23:00:19;53.95;;;25.35;;
22415;SDS011;12204;50.600;4.608;2023-12-04T23:05:28;56.97;;;28.67;;
22415;SDS011;12204;50.600;4.608;2023-12-04T23:10:31;58.03;;;29.55;;
22415;SDS011;12204;50.600;4.608;2023-12-04T23:15:35;70.53;;;32.30;;
22415;SDS011;12204;50.600;4.608;2023-12-04T23:20:40;73.80;;;32.65;;
22415;SDS011;12204;50.600;4.608;2023-12-04T23:25:43;70.40;;;32.63;;
22415;SDS011;12204;50.600;4.608;2023-12-04T23:30:48;64.75;;;31.95;;
22415;SDS011;12204;50.600;4.608;2023-12-04T23:35:53;69.40;;;32.95;;
22415;SDS011;12204;50.600;4.608;2023-12-04T23:40:57;64.13;;;30.85;;
22415;SDS011;12204;50.600;4.608;2023-12-04T23:46:00;66.55;;;32.30;;
22415;SDS011;12204;50.600;4.608;2023-12-04T23:51:05;67.05;;;33.83;;
22415;SDS011;12204;50.600;4.608;2023-12-04T23:56:10;63.40;;;31.67;;
